Time,TemperatureF,DewpointF,PressureIn,WindDirection,WindDirectionDegrees,WindSpeedMPH,WindSpeedGustMPH,Humidity,HourlyPrecipIn,Conditions,Clouds,dailyrainin,SolarRadiationWatts/m^2,SoftwareType,DateUTC
2013-03-22 00:03:00,51.3,47.3,29.77,NNW,334,0.0,0.0,86,0.00,,---,0.00,0.00,VWS V14.00,2013-03-22 07:03:00,
2013-03-22 00:08:00,51.3,47.3,29.77,NNW,334,0.0,0.0,86,0.00,,---,0.00,0.00,VWS V14.00,2013-03-22 07:08:00,
2013-03-22 00:13:00,51.4,47.7,29.77,NNW,334,0.0,0.0,87,0.00,,---,0.00,0.00,VWS V14.00,2013-03-22 07:13:00,
2013-03-22 00:18:00,51.6,47.6,29.77,NNW,334,0.0,0.0,86,0.00,,---,0.00,0.00,VWS V14.00,2013-03-22 07:18:00,
2013-03-22 00:23:00,51.3,47.3,29.77,NNW,333,0.0,0.0,86,0.00,,---,0.00,0.00,VWS V14.00,2013-03-22 07:23:00,
2013-03-22 00:28:00,51.0,47.0,29.77,NNW,334,0.0,0.0,86,0.00,,---,0.00,0.00,VWS V14.00,2013-03-22 07:28:00,
2013-03-22 00:33:00,50.8,46.5,29.77,NNW,344,0.0,0.0,85,0.00,,---,0.00,0.00,VWS V14.00,2013-03-22 07:33:00,
2013-03-22 00:38:00,50.8,46.5,29.77,NNW,344,0.0,0.0,85,0.00,,---,0.00,0.00,VWS V14.00,2013-03-22 07:38:00,
2013-03-22 00:43:00,50.5,45.8,29.77,NNW,337,0.0,0.0,84,0.00,,---,0.00,0.00,VWS V14.00,2013-03-22 07:43:00,
2013-03-22 00:48:00,50.5,45.8,29.77,NNW,338,0.0,0.0,84,0.00,,---,0.00,0.00,VWS V14.00,2013-03-22 07:48:00,
2013-03-22 00:53:00,50.4,45.8,29.77,NNW,338,0.0,0.0,84,0.00,,---,0.00,0.00,VWS V14.00,2013-03-22 07:53:00,
2013-03-22 00:58:00,50.1,45.5,29.77,NNW,338,0.0,0.0,84,0.00,,---,0.00,0.00,VWS V14.00,2013-03-22 07:58:00,
2013-03-22 01:03:00,50.1,45.5,29.76,NNW,338,0.0,0.0,84,0.00,,---,0.00,0.00,VWS V14.00,2013-03-22 08:03:00,
2013-03-22 01:08:00,50.1,45.5,29.76,NNW,338,0.0,0.0,84,0.00,,---,0.00,0.00,VWS V14.00,2013-03-22 08:08:00,
2013-03-22 01:13:00,50.1,45.5,29.76,NNW,338,0.0,0.0,84,0.00,,---,0.00,0.00,VWS V14.00,2013-03-22 08:13:00,
2013-03-22 01:18:00,49.8,44.8,29.76,NNW,338,0.0,0.0,83,0.00,,---,0.00,0.00,VWS V14.00,2013-03-22 08:18:00,
2013-03-22 01:23:00,49.4,43.8,29.76,NNW,337,0.0,0.0,81,0.00,,---,0.00,0.00,VWS V14.00,2013-03-22 08:23:00,
2013-03-22 01:28:00,49.2,43.6,29.76,NNW,337,0.0,0.0,81,0.00,,---,0.00,0.00,VWS V14.00,2013-03-22 08:28:00,
2013-03-22 01:33:00,49.2,43.3,29.76,NNW,337,0.0,0.0,80,0.00,,---,0.00,0.00,VWS V14.00,2013-03-22 08:33:00,
2013-03-22 01:38:00,49.4,43.8,29.76,NW,319,0.0,0.0,81,0.00,,---,0.00,0.00,VWS V14.00,2013-03-22 08:38:00,
2013-03-22 01:44:00,49.4,43.8,29.76,NW,318,0.0,0.0,81,0.00,,---,0.00,0.00,VWS V14.00,2013-03-22 08:44:00,
2013-03-22 01:49:00,49.4,43.8,29.77,NW,318,0.0,0.0,81,0.00,,---,0.00,0.00,VWS V14.00,2013-03-22 08:49:00,
2013-03-22 01:54:00,49.2,44.0,29.77,NW,319,0.0,0.0,82,0.00,,---,0.00,0.00,VWS V14.00,2013-03-22 08:54:00,
2013-03-22 01:59:00,49.1,43.8,29.77,NW,319,0.0,0.0,82,0.00,,---,0.00,0.00,VWS V14.00,2013-03-22 08:59:00,
2013-03-22 02:04:00,49.1,43.8,29.77,NW,319,0.0,0.0,82,0.00,,---,0.00,0.00,VWS V14.00,2013-03-22 09:04:00,
2013-03-22 02:09:00,48.8,43.2,29.77,NW,319,0.0,0.0,81,0.00,,---,0.00,0.00,VWS V14.00,2013-03-22 09:09:00,
2013-03-22 02:14:00,48.6,43.4,29.77,NW,319,0.0,0.0,82,0.00,,---,0.00,0.00,VWS V14.00,2013-03-22 09:14:00,
2013-03-22 02:19:00,48.5,43.0,29.76,NW,319,0.0,0.0,81,0.00,,---,0.00,0.00,VWS V14.00,2013-03-22 09:19:00,
2013-03-22 02:24:00,48.5,43.0,29.76,NW,318,0.0,0.0,81,0.00,,---,0.00,0.00,VWS V14.00,2013-03-22 09:24:00,
2013-03-22 02:29:00,48.6,43.0,29.76,NW,318,0.0,0.0,81,0.00,,---,0.00,0.00,VWS V14.00,2013-03-22 09:29:00,
2013-03-22 02:34:00,48.6,43.0,29.76,NW,318,0.0,0.0,81,0.00,,---,0.00,0.00,VWS V14.00,2013-03-22 09:34:00,
2013-03-22 02:39:00,48.5,43.0,29.76,NW,318,0.0,0.0,81,0.00,,---,0.00,0.00,VWS V14.00,2013-03-22 09:39:00,
2013-03-22 02:44:00,48.5,42.6,29.76,NW,318,0.0,0.0,80,0.00,,---,0.00,0.00,VWS V14.00,2013-03-22 09:44:00,
2013-03-22 02:49:00,48.3,42.4,29.76,NW,318,0.0,0.0,80,0.00,,---,0.00,0.00,VWS V14.00,2013-03-22 09:49:00,
2013-03-22 02:54:00,48.0,41.8,29.76,NW,318,0.0,0.0,79,0.00,,---,0.00,0.00,VWS V14.00,2013-03-22 09:54:00,
2013-03-22 02:59:00,48.0,41.5,29.76,NW,318,0.0,0.0,78,0.00,,---,0.00,0.00,VWS V14.00,2013-03-22 09:59:00,
2013-03-22 03:04:00,47.9,41.4,29.75,NW,318,0.0,0.0,78,0.00,,---,0.00,0.00,VWS V14.00,2013-03-22 10:04:00,
2013-03-22 03:09:00,47.9,41.4,29.75,NW,318,0.0,0.0,78,0.00,,---,0.00,0.00,VWS V14.00,2013-03-22 10:09:00,
2013-03-22 03:14:00,47.7,40.8,29.75,NW,318,0.0,0.0,77,0.00,,---,0.00,0.00,VWS V14.00,2013-03-22 10:14:00,
2013-03-22 03:19:00,47.9,41.4,29.75,NW,318,0.0,0.0,78,0.00,,---,0.00,0.00,VWS V14.00,2013-03-22 10:19:00,
2013-03-22 03:24:00,47.9,41.4,29.75,NW,318,0.0,0.0,78,0.00,,---,0.00,0.00,VWS V14.00,2013-03-22 10:24:00,
2013-03-22 03:29:00,47.7,40.8,29.75,NW,318,0.0,0.0,77,0.00,,---,0.00,0.00,VWS V14.00,2013-03-22 10:29:00,
2013-03-22 03:34:00,47.7,40.8,29.75,NW,318,0.0,0.0,77,0.00,,---,0.00,0.00,VWS V14.00,2013-03-22 10:34:00,
2013-03-22 03:39:00,47.4,40.9,29.75,NW,318,0.0,0.0,78,0.00,,---,0.00,0.00,VWS V14.00,2013-03-22 10:39:00,
2013-03-22 03:44:00,47.1,40.6,29.75,NNW,336,0.0,0.0,78,0.00,,---,0.00,0.00,VWS V14.00,2013-03-22 10:44:00,
2013-03-22 03:49:00,47.0,40.5,29.76,NNW,336,0.0,0.0,78,0.00,,---,0.00,0.00,VWS V14.00,2013-03-22 10:49:00,
2013-03-22 03:54:00,47.1,40.6,29.76,North,8,0.0,0.0,78,0.00,,---,0.00,0.00,VWS V14.00,2013-03-22 10:54:00,
2013-03-22 03:59:00,47.7,41.2,29.76,North,8,0.0,0.0,78,0.00,,---,0.00,0.00,VWS V14.00,2013-03-22 10:59:00,
2013-03-22 04:04:00,48.2,42.0,29.75,North,8,0.0,0.0,79,0.00,,---,0.00,0.00,VWS V14.00,2013-03-22 11:04:00,
2013-03-22 04:09:00,48.5,42.3,29.75,NE,37,0.0,0.0,79,0.00,,---,0.00,0.00,VWS V14.00,2013-03-22 11:09:00,
2013-03-22 04:14:00,48.9,43.0,29.75,NE,37,0.0,0.0,80,0.00,,---,0.00,0.00,VWS V14.00,2013-03-22 11:14:00,
2013-03-22 04:19:00,49.4,43.8,29.75,NE,41,0.0,0.0,81,0.00,,---,0.00,0.00,VWS V14.00,2013-03-22 11:19:00,
2013-03-22 04:24:00,49.8,44.2,29.75,NE,44,0.0,0.0,81,0.00,,---,0.00,0.00,VWS V14.00,2013-03-22 11:24:00,
2013-03-22 04:29:00,49.9,44.6,29.75,NE,44,0.0,0.0,82,0.00,,---,0.00,0.00,VWS V14.00,2013-03-22 11:29:00,
2013-03-22 04:34:00,50.4,45.4,29.76,NE,44,0.0,0.0,83,0.00,,---,0.00,0.00,VWS V14.00,2013-03-22 11:34:00,
2013-03-22 04:39:00,50.7,46.0,29.76,NE,44,0.0,0.0,84,0.00,,---,0.00,0.00,VWS V14.00,2013-03-22 11:39:00,
2013-03-22 04:44:00,50.8,46.2,29.76,NE,51,0.0,0.0,84,0.00,,---,0.00,0.00,VWS V14.00,2013-03-22 11:44:00,
2013-03-22 04:49:00,51.3,46.6,29.75,NE,54,0.0,0.0,84,0.00,,---,0.00,0.00,VWS V14.00,2013-03-22 11:49:00,
2013-03-22 04:54:00,51.6,47.2,29.75,ENE,68,0.0,9.0,85,0.00,,---,0.00,0.00,VWS V14.00,2013-03-22 11:54:00,
2013-03-22 04:59:00,52.0,47.6,29.75,NE,46,0.0,0.0,85,0.00,,---,0.00,0.00,VWS V14.00,2013-03-22 11:59:00,
2013-03-22 05:04:00,52.3,48.2,29.75,NE,55,0.0,0.0,86,0.00,,---,0.00,0.00,VWS V14.00,2013-03-22 12:04:00,
2013-03-22 05:09:00,52.3,47.9,29.75,ENE,70,0.0,2.0,85,0.00,,---,0.00,0.00,VWS V14.00,2013-03-22 12:09:00,
2013-03-22 05:14:00,52.2,47.8,29.75,NE,47,0.0,0.0,85,0.00,,---,0.00,0.00,VWS V14.00,2013-03-22 12:14:00,
2013-03-22 05:19:00,52.2,47.5,29.76,NE,56,0.0,0.0,84,0.00,,---,0.00,0.00,VWS V14.00,2013-03-22 12:19:00,
2013-03-22 05:24:00,52.0,47.3,29.76,ENE,65,0.0,0.0,84,0.00,,---,0.00,0.00,VWS V14.00,2013-03-22 12:24:00,
2013-03-22 05:29:00,51.9,47.2,29.76,NE,52,0.0,0.0,84,0.00,,---,0.00,0.00,VWS V14.00,2013-03-22 12:29:00,
2013-03-22 05:34:00,51.7,47.0,29.76,NE,49,0.0,0.0,84,0.00,,---,0.00,0.00,VWS V14.00,2013-03-22 12:34:00,
2013-03-22 05:39:00,51.7,47.0,29.76,NE,49,0.0,0.0,84,0.00,,---,0.00,0.00,VWS V14.00,2013-03-22 12:39:00,
2013-03-22 05:44:00,51.4,46.4,29.76,NE,49,0.0,0.0,83,0.00,,---,0.00,0.00,VWS V14.00,2013-03-22 12:44:00,
2013-03-22 05:49:00,51.3,46.3,29.76,NE,49,0.0,0.0,83,0.00,,---,0.00,0.00,VWS V14.00,2013-03-22 12:49:00,
2013-03-22 05:54:00,51.4,46.4,29.76,NE,49,0.0,0.0,83,0.00,,---,0.00,0.00,VWS V14.00,2013-03-22 12:54:00,
2013-03-22 05:59:00,51.3,46.3,29.76,NE,49,0.0,0.0,83,0.00,,---,0.00,0.00,VWS V14.00,2013-03-22 12:59:00,
2013-03-22 06:04:00,51.0,46.0,29.77,NE,49,0.0,0.0,83,0.00,,---,0.00,0.00,VWS V14.00,2013-03-22 13:04:00,
2013-03-22 06:09:00,50.8,45.8,29.77,NE,51,0.0,0.0,83,0.00,,---,0.00,0.00,VWS V14.00,2013-03-22 13:09:00,
2013-03-22 06:14:00,50.8,46.2,29.77,NE,56,0.0,0.0,84,0.00,,---,0.00,0.00,VWS V14.00,2013-03-22 13:14:00,
2013-03-22 06:20:00,51.0,46.3,29.77,NE,56,0.0,0.0,84,0.00,,---,0.00,0.00,VWS V14.00,2013-03-22 13:20:00,
2013-03-22 06:25:00,51.0,46.3,29.77,NE,56,0.0,0.0,84,0.00,,---,0.00,0.00,VWS V14.00,2013-03-22 13:25:00,
2013-03-22 06:30:00,50.8,46.2,29.77,NE,56,0.0,0.0,84,0.00,,---,0.00,0.00,VWS V14.00,2013-03-22 13:30:00,
2013-03-22 06:35:00,50.8,46.2,29.77,ENE,68,0.0,0.0,84,0.00,,---,0.00,0.00,VWS V14.00,2013-03-22 13:35:00,
2013-03-22 06:40:00,51.0,46.3,29.77,ENE,62,0.0,4.0,84,0.00,,---,0.00,0.00,VWS V14.00,2013-03-22 13:40:00,
2013-03-22 06:45:00,51.3,46.6,29.77,ENE,63,0.0,0.0,84,0.00,,---,0.00,0.00,VWS V14.00,2013-03-22 13:45:00,
2013-03-22 06:50:00,51.6,47.2,29.78,ENE,69,0.0,0.0,85,0.00,,---,0.00,0.00,VWS V14.00,2013-03-22 13:50:00,
2013-03-22 06:55:00,51.7,47.3,29.78,ENE,69,0.0,0.0,85,0.00,,---,0.00,5.00,VWS V14.00,2013-03-22 13:55:00,
2013-03-22 07:00:00,52.2,47.8,29.78,ENE,59,0.0,0.0,85,0.00,,---,0.00,7.00,VWS V14.00,2013-03-22 14:00:00,
2013-03-22 07:05:00,52.5,48.1,29.78,ENE,76,0.0,2.0,85,0.00,,---,0.00,11.00,VWS V14.00,2013-03-22 14:05:00,
2013-03-22 07:10:00,52.6,48.2,29.78,ENE,77,0.0,0.0,85,0.00,,---,0.00,16.00,VWS V14.00,2013-03-22 14:10:00,
2013-03-22 07:15:00,52.6,48.2,29.78,ENE,71,0.0,0.0,85,0.00,,---,0.00,23.00,VWS V14.00,2013-03-22 14:15:00,
2013-03-22 07:20:00,52.6,48.2,29.79,ENE,77,0.0,0.0,85,0.00,,---,0.00,25.00,VWS V14.00,2013-03-22 14:20:00,
2013-03-22 07:25:00,52.6,48.2,29.79,ENE,77,0.0,0.0,85,0.00,,---,0.00,28.00,VWS V14.00,2013-03-22 14:25:00,
2013-03-22 07:30:00,52.6,48.2,29.79,ENE,77,0.0,0.0,85,0.00,,---,0.00,32.00,VWS V14.00,2013-03-22 14:30:00,
2013-03-22 07:35:00,52.6,48.2,29.80,ENE,78,0.0,0.0,85,0.00,,---,0.00,35.00,VWS V14.00,2013-03-22 14:35:00,
2013-03-22 07:40:00,52.8,48.4,29.80,East,91,0.0,0.0,85,0.00,,---,0.00,39.00,VWS V14.00,2013-03-22 14:40:00,
2013-03-22 07:45:00,52.9,48.5,29.80,NE,47,0.0,0.0,85,0.00,,---,0.00,42.00,VWS V14.00,2013-03-22 14:45:00,
2013-03-22 07:50:00,53.3,48.9,29.81,NNE,32,0.0,0.0,85,0.00,,---,0.00,47.00,VWS V14.00,2013-03-22 14:50:00,
2013-03-22 07:55:00,53.6,49.5,29.81,NE,56,0.0,0.0,86,0.00,,---,0.00,53.00,VWS V14.00,2013-03-22 14:55:00,
2013-03-22 08:00:00,53.9,49.8,29.81,NE,56,0.0,0.0,86,0.00,,---,0.00,65.00,VWS V14.00,2013-03-22 15:00:00,
2013-03-22 08:05:00,54.2,50.1,29.81,NE,56,0.0,0.0,86,0.00,,---,0.00,81.00,VWS V14.00,2013-03-22 15:05:00,
2013-03-22 08:10:00,54.7,50.6,29.81,ENE,57,0.0,0.0,86,0.00,,---,0.00,72.00,VWS V14.00,2013-03-22 15:10:00,
2013-03-22 08:15:00,55.1,51.0,29.81,NE,52,0.0,0.0,86,0.00,,---,0.00,76.00,VWS V14.00,2013-03-22 15:15:00,
2013-03-22 08:20:00,55.4,51.3,29.82,ENE,76,0.0,0.0,86,0.00,,---,0.00,90.00,VWS V14.00,2013-03-22 15:20:00,
2013-03-22 08:25:00,55.7,51.6,29.82,ENE,78,0.0,0.0,86,0.00,,---,0.00,88.00,VWS V14.00,2013-03-22 15:25:00,
2013-03-22 08:30:00,56.0,51.9,29.82,ENE,76,2.0,6.0,86,0.00,,---,0.00,83.00,VWS V14.00,2013-03-22 15:30:00,
2013-03-22 08:35:00,56.2,51.8,29.82,ENE,76,0.0,3.0,85,0.00,,---,0.00,79.00,VWS V14.00,2013-03-22 15:35:00,
2013-03-22 08:40:00,56.3,51.5,29.82,ENE,74,5.0,6.0,84,0.00,,---,0.00,83.00,VWS V14.00,2013-03-22 15:40:00,
2013-03-22 08:45:00,56.6,51.8,29.82,East,83,3.0,9.0,84,0.00,,---,0.00,130.00,VWS V14.00,2013-03-22 15:45:00,
2013-03-22 08:50:00,56.7,51.9,29.83,ENE,66,0.0,5.0,84,0.00,,---,0.00,258.00,VWS V14.00,2013-03-22 15:50:00,
2013-03-22 08:55:00,56.9,51.8,29.83,East,91,4.0,8.0,83,0.00,,---,0.00,325.00,VWS V14.00,2013-03-22 15:55:00,
2013-03-22 09:00:00,57.0,51.6,29.83,NE,52,2.0,6.0,82,0.00,,---,0.00,345.00,VWS V14.00,2013-03-22 16:00:00,
2013-03-22 09:06:00,57.3,51.9,29.83,ENE,58,0.0,3.0,82,0.00,,---,0.00,359.00,VWS V14.00,2013-03-22 16:06:00,
2013-03-22 09:11:00,57.6,52.2,29.83,ENE,64,1.0,6.0,82,0.00,,---,0.00,380.00,VWS V14.00,2013-03-22 16:11:00,
2013-03-22 09:16:00,58.0,52.2,29.83,ENE,64,2.0,2.0,81,0.00,,---,0.00,396.00,VWS V14.00,2013-03-22 16:16:00,
2013-03-22 09:21:00,58.1,52.3,29.83,ENE,72,0.0,0.0,81,0.00,,---,0.00,413.00,VWS V14.00,2013-03-22 16:21:00,
2013-03-22 09:26:00,58.3,52.5,29.83,East,86,0.0,2.0,81,0.00,,---,0.00,425.00,VWS V14.00,2013-03-22 16:26:00,
2013-03-22 09:31:00,58.6,52.8,29.83,East,89,0.0,3.0,81,0.00,,---,0.00,445.00,VWS V14.00,2013-03-22 16:31:00,
2013-03-22 09:36:00,58.9,52.8,29.83,SE,144,0.0,0.0,80,0.00,,---,0.00,464.00,VWS V14.00,2013-03-22 16:36:00,
2013-03-22 09:41:00,59.2,53.0,29.83,ENE,78,0.0,1.0,80,0.00,,---,0.00,478.00,VWS V14.00,2013-03-22 16:41:00,
2013-03-22 09:46:00,59.5,53.3,29.83,East,87,0.0,1.0,80,0.00,,---,0.00,492.00,VWS V14.00,2013-03-22 16:46:00,
2013-03-22 09:51:00,59.6,53.1,29.83,East,83,3.0,3.0,79,0.00,,---,0.00,508.00,VWS V14.00,2013-03-22 16:51:00,
2013-03-22 09:57:00,59.8,52.9,29.83,ENE,68,0.0,5.0,78,0.00,,---,0.00,524.00,VWS V14.00,2013-03-22 16:57:00,
2013-03-22 10:02:00,60.2,53.3,29.83,ENE,60,1.0,3.0,78,0.00,,---,0.00,541.00,VWS V14.00,2013-03-22 17:02:00,
2013-03-22 10:07:00,60.4,53.2,29.83,ENE,66,4.0,6.0,77,0.00,,---,0.00,554.00,VWS V14.00,2013-03-22 17:07:00,
2013-03-22 10:12:00,60.5,52.9,29.83,ENE,66,0.0,1.0,76,0.00,,---,0.00,571.00,VWS V14.00,2013-03-22 17:12:00,
2013-03-22 10:17:00,60.9,53.7,29.84,NE,43,0.0,1.0,77,0.00,,---,0.00,580.00,VWS V14.00,2013-03-22 17:17:00,
2013-03-22 10:22:00,61.2,53.6,29.84,East,81,1.0,3.0,76,0.00,,---,0.00,599.00,VWS V14.00,2013-03-22 17:22:00,
2013-03-22 10:27:00,61.0,53.4,29.84,ESE,104,0.0,0.0,76,0.00,,---,0.00,612.00,VWS V14.00,2013-03-22 17:27:00,
2013-03-22 10:32:00,61.0,53.4,29.84,SE,127,0.0,2.0,76,0.00,,---,0.00,619.00,VWS V14.00,2013-03-22 17:32:00,
2013-03-22 10:37:00,61.3,53.7,29.84,ESE,123,0.0,0.0,76,0.00,,---,0.00,631.00,VWS V14.00,2013-03-22 17:37:00,
2013-03-22 10:42:00,61.3,53.3,29.84,SE,126,0.0,0.0,75,0.00,,---,0.00,640.00,VWS V14.00,2013-03-22 17:42:00,
2013-03-22 10:47:00,61.3,53.3,29.84,ESE,122,0.0,0.0,75,0.00,,---,0.00,659.00,VWS V14.00,2013-03-22 17:47:00,
2013-03-22 10:52:00,61.5,53.9,29.84,NE,41,0.0,1.0,76,0.00,,---,0.00,664.00,VWS V14.00,2013-03-22 17:52:00,
2013-03-22 10:57:00,61.8,53.8,29.84,East,83,0.0,0.0,75,0.00,,---,0.00,680.00,VWS V14.00,2013-03-22 17:57:00,
2013-03-22 11:02:00,62.3,53.9,29.84,East,97,0.0,0.0,74,0.00,,---,0.00,693.00,VWS V14.00,2013-03-22 18:02:00,
2013-03-22 11:07:00,62.6,53.8,29.84,East,101,0.0,6.0,73,0.00,,---,0.00,700.00,VWS V14.00,2013-03-22 18:07:00,
2013-03-22 11:12:00,63.2,54.4,29.84,ENE,73,1.0,1.0,73,0.00,,---,0.00,714.00,VWS V14.00,2013-03-22 18:12:00,
2013-03-22 11:17:00,63.5,54.3,29.84,ENE,73,0.0,2.0,72,0.00,,---,0.00,717.00,VWS V14.00,2013-03-22 18:17:00,
2013-03-22 11:22:00,63.9,54.7,29.84,ENE,76,0.0,2.0,72,0.00,,---,0.00,728.00,VWS V14.00,2013-03-22 18:22:00,
2013-03-22 11:27:00,64.5,54.5,29.84,ENE,76,0.0,0.0,70,0.00,,---,0.00,737.00,VWS V14.00,2013-03-22 18:27:00,
2013-03-22 11:32:00,64.3,53.9,29.84,ESE,103,0.0,1.0,69,0.00,,---,0.00,744.00,VWS V14.00,2013-03-22 18:32:00,
2013-03-22 11:37:00,64.7,53.5,29.84,SSE,148,0.0,1.0,67,0.00,,---,0.00,758.00,VWS V14.00,2013-03-22 18:37:00,
2013-03-22 11:42:00,64.2,53.8,29.84,South,175,0.0,1.0,69,0.00,,---,0.00,766.00,VWS V14.00,2013-03-22 18:42:00,
2013-03-22 11:47:00,65.0,53.4,29.84,SE,141,0.0,2.0,66,0.00,,---,0.00,768.00,VWS V14.00,2013-03-22 18:47:00,
2013-03-22 11:52:00,64.7,53.1,29.84,South,178,1.0,3.0,66,0.00,,---,0.00,714.00,VWS V14.00,2013-03-22 18:52:00,
2013-03-22 11:57:00,64.0,52.8,29.84,SSW,212,2.0,3.0,67,0.00,,---,0.00,786.00,VWS V14.00,2013-03-22 18:57:00,
2013-03-22 12:02:00,63.7,53.7,29.84,SW,233,0.0,0.0,70,0.00,,---,0.00,784.00,VWS V14.00,2013-03-22 19:02:00,
2013-03-22 12:07:00,64.2,53.0,29.84,South,191,2.0,2.0,67,0.00,,---,0.00,796.00,VWS V14.00,2013-03-22 19:07:00,
2013-03-22 12:12:00,64.5,53.3,29.84,SSW,194,0.0,0.0,67,0.00,,---,0.00,823.00,VWS V14.00,2013-03-22 19:12:00,
2013-03-22 12:17:00,65.3,53.2,29.84,SW,215,3.0,5.0,65,0.00,,---,0.00,459.00,VWS V14.00,2013-03-22 19:17:00,
2013-03-22 12:22:00,63.9,53.5,29.84,WSW,243,2.0,3.0,69,0.00,,---,0.00,385.00,VWS V14.00,2013-03-22 19:22:00,
2013-03-22 12:27:00,63.4,53.1,29.84,WSW,245,4.0,6.0,69,0.00,,---,0.00,346.00,VWS V14.00,2013-03-22 19:27:00,
2013-03-22 12:32:00,62.7,53.9,29.84,South,187,5.0,7.0,73,0.00,,---,0.00,860.00,VWS V14.00,2013-03-22 19:32:00,
2013-03-22 12:37:00,62.0,52.9,29.84,West,267,6.0,7.0,72,0.00,,---,0.00,823.00,VWS V14.00,2013-03-22 19:37:00,
2013-03-22 12:42:00,62.1,53.3,29.84,West,260,2.0,6.0,73,0.00,,---,0.00,817.00,VWS V14.00,2013-03-22 19:42:00,
2013-03-22 12:47:00,62.0,53.3,29.83,WSW,253,4.0,7.0,73,0.00,,---,0.00,893.00,VWS V14.00,2013-03-22 19:47:00,
2013-03-22 12:52:00,62.6,53.8,29.83,SW,221,1.0,5.0,73,0.00,,---,0.00,847.00,VWS V14.00,2013-03-22 19:52:00,
2013-03-22 12:57:00,62.9,54.1,29.83,WSW,247,5.0,7.0,73,0.00,,---,0.00,812.00,VWS V14.00,2013-03-22 19:57:00,
2013-03-22 13:02:00,62.9,53.4,29.83,SSW,209,0.0,7.0,71,0.00,,---,0.00,849.00,VWS V14.00,2013-03-22 20:02:00,
2013-03-22 13:07:00,62.9,53.4,29.83,South,182,0.0,1.0,71,0.00,,---,0.00,831.00,VWS V14.00,2013-03-22 20:07:00,
2013-03-22 13:12:00,62.7,52.8,29.83,South,183,9.0,10.0,70,0.00,,---,0.00,816.00,VWS V14.00,2013-03-22 20:12:00,
2013-03-22 13:17:00,62.7,52.4,29.83,West,270,6.0,11.0,69,0.00,,---,0.00,828.00,VWS V14.00,2013-03-22 20:17:00,
2013-03-22 13:22:00,61.6,52.5,29.83,West,259,5.0,8.0,72,0.00,,---,0.00,860.00,VWS V14.00,2013-03-22 20:22:00,
2013-03-22 13:28:00,61.2,52.5,29.83,West,266,4.0,10.0,73,0.00,,---,0.00,817.00,VWS V14.00,2013-03-22 20:28:00,
2013-03-22 13:33:00,60.9,52.6,29.83,WSW,253,6.0,10.0,74,0.00,,---,0.00,867.00,VWS V14.00,2013-03-22 20:33:00,
2013-03-22 13:38:00,61.2,53.2,29.83,West,261,5.0,6.0,75,0.00,,---,0.00,863.00,VWS V14.00,2013-03-22 20:38:00,
2013-03-22 13:43:00,60.9,52.9,29.83,WSW,253,4.0,7.0,75,0.00,,---,0.00,816.00,VWS V14.00,2013-03-22 20:43:00,
2013-03-22 13:48:00,61.2,53.6,29.82,SW,234,6.0,6.0,76,0.00,,---,0.00,824.00,VWS V14.00,2013-03-22 20:48:00,
2013-03-22 13:53:00,61.3,53.7,29.82,SSE,164,2.0,13.0,76,0.00,,---,0.00,782.00,VWS V14.00,2013-03-22 20:53:00,
2013-03-22 13:58:00,61.3,53.7,29.82,West,281,6.0,13.0,76,0.00,,---,0.00,772.00,VWS V14.00,2013-03-22 20:58:00,
2013-03-22 14:03:00,60.7,53.1,29.82,West,277,5.0,10.0,76,0.00,,---,0.00,708.00,VWS V14.00,2013-03-22 21:03:00,
2013-03-22 14:08:00,61.2,54.3,29.82,WSW,253,9.0,9.0,78,0.00,,---,0.00,780.00,VWS V14.00,2013-03-22 21:08:00,
2013-03-22 14:13:00,61.5,53.5,29.82,WSW,245,6.0,7.0,75,0.00,,---,0.00,733.00,VWS V14.00,2013-03-22 21:13:00,
2013-03-22 14:18:00,61.5,54.2,29.82,West,280,6.0,12.0,77,0.00,,---,0.00,803.00,VWS V14.00,2013-03-22 21:18:00,
2013-03-22 14:23:00,61.3,54.0,29.82,SW,234,7.0,7.0,77,0.00,,---,0.00,812.00,VWS V14.00,2013-03-22 21:23:00,
2013-03-22 14:28:00,60.9,54.0,29.82,WSW,247,6.0,10.0,78,0.00,,---,0.00,679.00,VWS V14.00,2013-03-22 21:28:00,
2013-03-22 14:33:00,61.3,54.0,29.82,WSW,254,14.0,14.0,77,0.00,,---,0.00,758.00,VWS V14.00,2013-03-22 21:33:00,
2013-03-22 14:38:00,60.7,53.5,29.82,West,259,1.0,14.0,77,0.00,,---,0.00,733.00,VWS V14.00,2013-03-22 21:38:00,
2013-03-22 14:43:00,61.3,54.0,29.82,SW,219,5.0,10.0,77,0.00,,---,0.00,758.00,VWS V14.00,2013-03-22 21:43:00,
2013-03-22 14:48:00,61.8,54.5,29.81,West,270,13.0,13.0,77,0.00,,---,0.00,740.00,VWS V14.00,2013-03-22 21:48:00,
2013-03-22 14:53:00,61.2,53.9,29.81,WSW,242,9.0,13.0,77,0.00,,---,0.00,708.00,VWS V14.00,2013-03-22 21:53:00,
2013-03-22 14:58:00,61.2,53.9,29.81,West,267,5.0,10.0,77,0.00,,---,0.00,701.00,VWS V14.00,2013-03-22 21:58:00,
2013-03-22 15:03:00,61.3,54.0,29.81,SSW,195,6.0,7.0,77,0.00,,---,0.00,684.00,VWS V14.00,2013-03-22 22:03:00,
2013-03-22 15:08:00,61.8,53.8,29.81,WNW,284,9.0,11.0,75,0.00,,---,0.00,657.00,VWS V14.00,2013-03-22 22:08:00,
2013-03-22 15:13:00,61.8,53.8,29.81,West,268,10.0,10.0,75,0.00,,---,0.00,654.00,VWS V14.00,2013-03-22 22:13:00,
2013-03-22 15:18:00,62.1,53.3,29.80,West,280,5.0,11.0,73,0.00,,---,0.00,640.00,VWS V14.00,2013-03-22 22:18:00,
2013-03-22 15:23:00,62.1,52.6,29.80,WNW,289,7.0,15.0,71,0.00,,---,0.00,635.00,VWS V14.00,2013-03-22 22:23:00,
2013-03-22 15:28:00,61.8,53.1,29.80,WSW,251,12.0,17.0,73,0.00,,---,0.00,621.00,VWS V14.00,2013-03-22 22:28:00,
2013-03-22 15:33:00,61.8,53.1,29.79,West,269,8.0,14.0,73,0.00,,---,0.00,606.00,VWS V14.00,2013-03-22 22:33:00,
2013-03-22 15:38:00,61.2,53.2,29.79,WNW,282,3.0,17.0,75,0.00,,---,0.00,599.00,VWS V14.00,2013-03-22 22:38:00,
2013-03-22 15:43:00,61.3,53.0,29.79,West,265,4.0,9.0,74,0.00,,---,0.00,585.00,VWS V14.00,2013-03-22 22:43:00,
2013-03-22 15:48:00,61.5,53.2,29.79,West,279,12.0,15.0,74,0.00,,---,0.00,573.00,VWS V14.00,2013-03-22 22:48:00,
2013-03-22 15:53:00,61.2,53.2,29.79,West,270,10.0,10.0,75,0.00,,---,0.00,557.00,VWS V14.00,2013-03-22 22:53:00,
2013-03-22 15:58:00,61.3,53.7,29.79,West,261,3.0,7.0,76,0.00,,---,0.00,543.00,VWS V14.00,2013-03-22 22:58:00,
2013-03-22 16:03:00,61.6,54.0,29.79,WSW,255,9.0,15.0,76,0.00,,---,0.00,527.00,VWS V14.00,2013-03-22 23:03:00,
2013-03-22 16:08:00,61.6,54.0,29.79,SW,220,5.0,9.0,76,0.00,,---,0.00,524.00,VWS V14.00,2013-03-22 23:08:00,
2013-03-22 16:13:00,61.8,53.8,29.79,WSW,245,6.0,12.0,75,0.00,,---,0.00,510.00,VWS V14.00,2013-03-22 23:13:00,
2013-03-22 16:18:00,62.0,53.6,29.79,WSW,257,1.0,11.0,74,0.00,,---,0.00,490.00,VWS V14.00,2013-03-22 23:18:00,
2013-03-22 16:23:00,61.5,53.2,29.79,West,276,8.0,14.0,74,0.00,,---,0.00,480.00,VWS V14.00,2013-03-22 23:23:00,
2013-03-22 16:29:00,61.5,53.9,29.79,WNW,284,5.0,8.0,76,0.00,,---,0.00,464.00,VWS V14.00,2013-03-22 23:29:00,
2013-03-22 16:34:00,61.6,54.0,29.78,WNW,299,6.0,12.0,76,0.00,,---,0.00,454.00,VWS V14.00,2013-03-22 23:34:00,
2013-03-22 16:39:00,61.8,53.8,29.78,WNW,286,3.0,14.0,75,0.00,,---,0.00,436.00,VWS V14.00,2013-03-22 23:39:00,
2013-03-22 16:44:00,61.6,53.6,29.78,WSW,255,6.0,17.0,75,0.00,,---,0.00,420.00,VWS V14.00,2013-03-22 23:44:00,
2013-03-22 16:49:00,61.3,53.0,29.78,West,271,13.0,13.0,74,0.00,,---,0.00,404.00,VWS V14.00,2013-03-22 23:49:00,
2013-03-22 16:54:00,61.6,53.2,29.78,SW,235,11.0,14.0,74,0.00,,---,0.00,390.00,VWS V14.00,2013-03-22 23:54:00,
2013-03-22 16:59:00,61.8,53.1,29.78,West,264,8.0,13.0,73,0.00,,---,0.00,374.00,VWS V14.00,2013-03-22 23:59:00,
2013-03-22 17:04:00,61.5,52.4,29.77,WNW,286,8.0,11.0,72,0.00,,---,0.00,360.00,VWS V14.00,2013-03-23 00:04:00,
2013-03-22 17:09:00,61.5,52.8,29.77,West,270,12.0,15.0,73,0.00,,---,0.00,339.00,VWS V14.00,2013-03-23 00:09:00,
2013-03-22 17:14:00,61.5,52.4,29.77,West,280,4.0,10.0,72,0.00,,---,0.00,325.00,VWS V14.00,2013-03-23 00:14:00,
2013-03-22 17:19:00,61.5,52.4,29.77,WSW,257,8.0,14.0,72,0.00,,---,0.00,308.00,VWS V14.00,2013-03-23 00:19:00,
2013-03-22 17:24:00,61.6,52.1,29.77,West,277,10.0,14.0,71,0.00,,---,0.00,290.00,VWS V14.00,2013-03-23 00:24:00,
2013-03-22 17:29:00,61.8,52.3,29.77,WNW,283,7.0,10.0,71,0.00,,---,0.00,274.00,VWS V14.00,2013-03-23 00:29:00,
2013-03-22 17:34:00,62.0,52.1,29.77,West,280,5.0,9.0,70,0.00,,---,0.00,255.00,VWS V14.00,2013-03-23 00:34:00,
2013-03-22 17:39:00,62.1,51.0,29.77,WSW,238,7.0,11.0,67,0.00,,---,0.00,241.00,VWS V14.00,2013-03-23 00:39:00,
2013-03-22 17:44:00,61.5,50.0,29.77,West,266,12.0,14.0,66,0.00,,---,0.00,223.00,VWS V14.00,2013-03-23 00:44:00,
2013-03-22 17:49:00,61.3,50.3,29.77,West,268,7.0,10.0,67,0.00,,---,0.00,206.00,VWS V14.00,2013-03-23 00:49:00,
2013-03-22 17:54:00,61.3,49.5,29.77,WSW,258,9.0,9.0,65,0.00,,---,0.00,186.00,VWS V14.00,2013-03-23 00:54:00,
2013-03-22 17:59:00,61.3,48.2,29.77,West,264,1.0,9.0,62,0.00,,---,0.00,169.00,VWS V14.00,2013-03-23 00:59:00,
2013-03-22 18:04:00,61.5,48.4,29.77,West,269,0.0,4.0,62,0.00,,---,0.00,153.00,VWS V14.00,2013-03-23 01:04:00,
2013-03-22 18:09:00,62.0,48.8,29.77,NW,305,0.0,5.0,62,0.00,,---,0.00,137.00,VWS V14.00,2013-03-23 01:09:00,
2013-03-22 18:14:00,61.8,48.7,29.77,West,263,1.0,5.0,62,0.00,,---,0.00,118.00,VWS V14.00,2013-03-23 01:14:00,
2013-03-22 18:19:00,61.5,48.4,29.77,West,272,6.0,10.0,62,0.00,,---,0.00,104.00,VWS V14.00,2013-03-23 01:19:00,
2013-03-22 18:24:00,61.0,48.8,29.77,West,280,2.0,12.0,64,0.00,,---,0.00,86.00,VWS V14.00,2013-03-23 01:24:00,
2013-03-22 18:29:00,60.7,48.0,29.77,NW,306,0.0,1.0,63,0.00,,---,0.00,72.00,VWS V14.00,2013-03-23 01:29:00,
2013-03-22 18:34:00,61.3,48.2,29.77,NNW,334,0.0,2.0,62,0.00,,---,0.00,58.00,VWS V14.00,2013-03-23 01:34:00,
2013-03-22 18:39:00,62.0,48.4,29.77,North,349,0.0,3.0,61,0.00,,---,0.00,46.00,VWS V14.00,2013-03-23 01:39:00,
2013-03-22 18:44:00,62.3,47.8,29.77,North,349,0.0,0.0,59,0.00,,---,0.00,35.00,VWS V14.00,2013-03-23 01:44:00,
2013-03-22 18:49:00,61.8,47.8,29.78,WNW,287,2.0,4.0,60,0.00,,---,0.00,26.00,VWS V14.00,2013-03-23 01:49:00,
2013-03-22 18:54:00,61.0,47.9,29.78,West,281,0.0,0.0,62,0.00,,---,0.00,18.00,VWS V14.00,2013-03-23 01:54:00,
2013-03-22 18:59:00,60.5,47.9,29.78,West,281,0.0,0.0,63,0.00,,---,0.00,14.00,VWS V14.00,2013-03-23 01:59:00,
2013-03-22 19:04:00,59.9,47.7,29.79,West,261,0.0,0.0,64,0.00,,---,0.00,9.00,VWS V14.00,2013-03-23 02:04:00,
2013-03-22 19:09:00,59.6,47.8,29.79,West,261,0.0,0.0,65,0.00,,---,0.00,5.00,VWS V14.00,2013-03-23 02:09:00,
2013-03-22 19:14:00,59.6,47.8,29.79,West,261,0.0,0.0,65,0.00,,---,0.00,0.00,VWS V14.00,2013-03-23 02:14:00,
2013-03-22 19:19:00,59.6,47.8,29.79,West,261,0.0,0.0,65,0.00,,---,0.00,0.00,VWS V14.00,2013-03-23 02:19:00,
2013-03-22 19:24:00,59.6,48.6,29.79,WNW,301,0.0,0.0,67,0.00,,---,0.00,0.00,VWS V14.00,2013-03-23 02:24:00,
2013-03-22 19:29:00,59.5,49.3,29.79,NW,305,0.0,0.0,69,0.00,,---,0.00,0.00,VWS V14.00,2013-03-23 02:29:00,
2013-03-22 19:34:00,59.3,50.3,29.79,ENE,72,2.0,4.0,72,0.00,,---,0.00,0.00,VWS V14.00,2013-03-23 02:34:00,
2013-03-22 19:39:00,59.0,50.4,29.79,East,98,0.0,0.0,73,0.00,,---,0.00,0.00,VWS V14.00,2013-03-23 02:39:00,
2013-03-22 19:44:00,58.7,50.8,29.79,NE,51,2.0,4.0,75,0.00,,---,0.00,0.00,VWS V14.00,2013-03-23 02:44:00,
2013-03-22 19:49:00,58.6,51.1,29.79,East,89,0.0,4.0,76,0.00,,---,0.00,0.00,VWS V14.00,2013-03-23 02:49:00,
2013-03-22 19:54:00,58.4,51.6,29.79,East,86,0.0,0.0,78,0.00,,---,0.00,0.00,VWS V14.00,2013-03-23 02:54:00,
2013-03-22 19:59:00,58.3,51.5,29.79,East,86,0.0,0.0,78,0.00,,---,0.00,0.00,VWS V14.00,2013-03-23 02:59:00,
2013-03-22 20:04:00,58.1,51.6,29.79,East,86,0.0,0.0,79,0.00,,---,0.00,0.00,VWS V14.00,2013-03-23 03:04:00,
2013-03-22 20:09:00,58.1,51.6,29.79,East,86,0.0,0.0,79,0.00,,---,0.00,0.00,VWS V14.00,2013-03-23 03:09:00,
2013-03-22 20:14:00,58.0,51.9,29.79,East,86,0.0,0.0,80,0.00,,---,0.00,0.00,VWS V14.00,2013-03-23 03:14:00,
2013-03-22 20:19:00,57.8,51.7,29.81,East,86,0.0,0.0,80,0.00,,---,0.00,0.00,VWS V14.00,2013-03-23 03:19:00,
2013-03-22 20:24:00,57.5,51.4,29.81,East,86,0.0,0.0,80,0.00,,---,0.00,0.00,VWS V14.00,2013-03-23 03:24:00,
2013-03-22 20:29:00,57.3,51.2,29.81,East,86,0.0,0.0,80,0.00,,---,0.00,0.00,VWS V14.00,2013-03-23 03:29:00,
2013-03-22 20:34:00,56.9,50.5,29.81,East,86,0.0,0.0,79,0.00,,---,0.00,0.00,VWS V14.00,2013-03-23 03:34:00,
2013-03-22 20:39:00,56.6,50.5,29.81,East,86,0.0,0.0,80,0.00,,---,0.00,0.00,VWS V14.00,2013-03-23 03:39:00,
2013-03-22 20:44:00,56.5,50.4,29.81,East,86,0.0,0.0,80,0.00,,---,0.00,0.00,VWS V14.00,2013-03-23 03:44:00,
2013-03-22 20:50:00,56.3,50.5,29.81,East,86,0.0,0.0,81,0.00,,---,0.00,0.00,VWS V14.00,2013-03-23 03:50:00,
2013-03-22 20:55:00,56.3,50.5,29.81,East,86,0.0,0.0,81,0.00,,---,0.00,0.00,VWS V14.00,2013-03-23 03:55:00,
2013-03-22 21:00:00,56.3,50.9,29.81,East,86,0.0,0.0,82,0.00,,---,0.00,0.00,VWS V14.00,2013-03-23 04:00:00,
2013-03-22 21:05:00,56.5,51.4,29.82,East,86,0.0,0.0,83,0.00,,---,0.00,0.00,VWS V14.00,2013-03-23 04:05:00,
2013-03-22 21:10:00,56.5,51.7,29.82,East,86,0.0,0.0,84,0.00,,---,0.00,0.00,VWS V14.00,2013-03-23 04:10:00,
2013-03-22 21:15:00,56.3,51.5,29.82,ENE,63,0.0,3.0,84,0.00,,---,0.00,0.00,VWS V14.00,2013-03-23 04:15:00,
2013-03-22 21:20:00,56.3,51.5,29.82,ENE,57,0.0,0.0,84,0.00,,---,0.00,0.00,VWS V14.00,2013-03-23 04:20:00,
2013-03-22 21:25:00,56.2,51.4,29.82,ENE,57,0.0,0.0,84,0.00,,---,0.00,0.00,VWS V14.00,2013-03-23 04:25:00,
2013-03-22 21:30:00,56.0,51.2,29.82,ENE,57,0.0,0.0,84,0.00,,---,0.00,0.00,VWS V14.00,2013-03-23 04:30:00,
2013-03-22 21:35:00,56.0,51.2,29.83,ENE,57,0.0,0.0,84,0.00,,---,0.00,0.00,VWS V14.00,2013-03-23 04:35:00,
2013-03-22 21:40:00,55.9,51.1,29.83,ENE,57,0.0,0.0,84,0.00,,---,0.00,0.00,VWS V14.00,2013-03-23 04:40:00,
2013-03-22 21:45:00,55.7,51.0,29.83,ENE,57,0.0,0.0,84,0.00,,---,0.00,0.00,VWS V14.00,2013-03-23 04:45:00,
2013-03-22 21:51:00,55.6,50.8,29.84,ENE,57,0.0,0.0,84,0.00,,---,0.00,0.00,VWS V14.00,2013-03-23 04:51:00,
2013-03-22 21:56:00,55.4,50.7,29.84,ENE,57,0.0,0.0,84,0.00,,---,0.00,0.00,VWS V14.00,2013-03-23 04:56:00,
2013-03-22 22:01:00,55.3,50.2,29.84,ENE,57,0.0,0.0,83,0.00,,---,0.00,0.00,VWS V14.00,2013-03-23 05:01:00,
2013-03-22 22:06:00,55.1,50.4,29.84,ENE,57,0.0,0.0,84,0.00,,---,0.00,0.00,VWS V14.00,2013-03-23 05:06:00,
2013-03-22 22:11:00,55.1,50.4,29.84,ENE,60,0.0,0.0,84,0.00,,---,0.00,0.00,VWS V14.00,2013-03-23 05:11:00,
2013-03-22 22:16:00,55.1,50.4,29.84,ENE,60,0.0,0.0,84,0.00,,---,0.00,0.00,VWS V14.00,2013-03-23 05:16:00,
2013-03-22 22:21:00,55.1,50.4,29.84,NE,55,0.0,0.0,84,0.00,,---,0.00,0.00,VWS V14.00,2013-03-23 05:21:00,
2013-03-22 22:26:00,55.1,50.4,29.84,NE,55,0.0,0.0,84,0.00,,---,0.00,0.00,VWS V14.00,2013-03-23 05:26:00,
2013-03-22 22:31:00,55.0,50.3,29.84,NE,55,0.0,0.0,84,0.00,,---,0.00,0.00,VWS V14.00,2013-03-23 05:31:00,
2013-03-22 22:36:00,54.8,50.1,29.84,ENE,58,0.0,0.0,84,0.00,,---,0.00,0.00,VWS V14.00,2013-03-23 05:36:00,
2013-03-22 22:41:00,54.8,50.1,29.84,ENE,58,0.0,0.0,84,0.00,,---,0.00,0.00,VWS V14.00,2013-03-23 05:41:00,
2013-03-22 22:46:00,54.8,50.1,29.85,ENE,58,0.0,0.0,84,0.00,,---,0.00,0.00,VWS V14.00,2013-03-23 05:46:00,
2013-03-22 22:51:00,54.7,50.0,29.85,ENE,58,0.0,0.0,84,0.00,,---,0.00,0.00,VWS V14.00,2013-03-23 05:51:00,
2013-03-22 22:56:00,54.5,49.8,29.85,ENE,58,0.0,0.0,84,0.00,,---,0.00,0.00,VWS V14.00,2013-03-23 05:56:00,
2013-03-22 23:01:00,54.5,50.1,29.84,ENE,58,0.0,0.0,85,0.00,,---,0.00,0.00,VWS V14.00,2013-03-23 06:01:00,
2013-03-22 23:06:00,54.4,49.7,29.84,ENE,58,0.0,0.0,84,0.00,,---,0.00,0.00,VWS V14.00,2013-03-23 06:06:00,
2013-03-22 23:12:00,54.2,49.5,29.84,ENE,58,0.0,0.0,84,0.00,,---,0.00,0.00,VWS V14.00,2013-03-23 06:12:00,
2013-03-22 23:17:00,53.9,49.2,29.85,ENE,58,0.0,0.0,84,0.00,,---,0.00,0.00,VWS V14.00,2013-03-23 06:17:00,
2013-03-22 23:22:00,53.6,48.9,29.85,ENE,58,0.0,0.0,84,0.00,,---,0.00,0.00,VWS V14.00,2013-03-23 06:22:00,
2013-03-22 23:27:00,53.5,48.8,29.85,ENE,58,0.0,0.0,84,0.00,,---,0.00,0.00,VWS V14.00,2013-03-23 06:27:00,
2013-03-22 23:32:00,53.1,48.1,29.85,ENE,58,0.0,0.0,83,0.00,,---,0.00,0.00,VWS V14.00,2013-03-23 06:32:00,
2013-03-22 23:37:00,52.9,47.9,29.85,ENE,58,0.0,0.0,83,0.00,,---,0.00,0.00,VWS V14.00,2013-03-23 06:37:00,
2013-03-22 23:42:00,52.8,47.8,29.85,ENE,58,0.0,0.0,83,0.00,,---,0.00,0.00,VWS V14.00,2013-03-23 06:42:00,
2013-03-22 23:47:00,52.3,47.0,29.86,ENE,58,0.0,0.0,82,0.00,,---,0.00,0.00,VWS V14.00,2013-03-23 06:47:00,
2013-03-22 23:52:00,52.2,46.9,29.86,ENE,58,0.0,0.0,82,0.00,,---,0.00,0.00,VWS V14.00,2013-03-23 06:52:00,
2013-03-22 23:57:00,51.9,46.6,29.86,ENE,58,0.0,0.0,82,0.00,,---,0.00,0.00,VWS V14.00,2013-03-23 06:57:00,